GLD1793 SUSO-SBCR
Flight info
| Callsign | GLD1793 |
|---|---|
| Flight time | N/A |
| Altitude | 37000 |
| Route | DCT KORTA UN785 GEMSU UP526 VAS UM402 SIDAK DCT |
| Aircraft | B738/M-SDFGIRY/S |
Departure
| Time | 2026-05-01 13:19 |
|---|---|
| Airport | Nueva Hesperides International Airport (SUSO) |
Arrival
| Time | N/A |
|---|---|
| Airport | Corumbá International Airport (SBCR) |
| Time | Latitude | Longitude | Altitude | Speed | Heading |
|---|---|---|---|---|---|
| 2026-05-01 13:01 | -31.43757 | -57.98120 | 133 ft | 0 kts | 250° |
| 2026-05-01 13:13 | -31.43757 | -57.98124 | 133 ft | 2 kts | 261° |
| 2026-05-01 13:14 | -31.43749 | -57.98162 | 133 ft | 8 kts | 285° |
| 2026-05-01 13:14 | -31.43734 | -57.98245 | 133 ft | 11 kts | 281° |
| 2026-05-01 13:14 | -31.43719 | -57.98339 | 133 ft | 12 kts | 280° |
| 2026-05-01 13:14 | -31.43743 | -57.98423 | 132 ft | 11 kts | 227° |
| 2026-05-01 13:15 | -31.43808 | -57.98488 | 132 ft | 13 kts | 219° |
| 2026-05-01 13:15 | -31.43881 | -57.98555 | 128 ft | 13 kts | 219° |
| 2026-05-01 13:15 | -31.43954 | -57.98626 | 128 ft | 14 kts | 220° |
| 2026-05-01 13:15 | -31.44029 | -57.98701 | 123 ft | 14 kts | 220° |
| 2026-05-01 13:16 | -31.44104 | -57.98766 | 125 ft | 13 kts | 217° |
| 2026-05-01 13:16 | -31.44174 | -57.98835 | 124 ft | 13 kts | 219° |
| 2026-05-01 13:16 | -31.44246 | -57.98900 | 121 ft | 13 kts | 218° |
| 2026-05-01 13:17 | -31.44379 | -57.99043 | 120 ft | 1 kts | 151° |
| 2026-05-01 13:17 | -31.44378 | -57.99031 | 121 ft | 3 kts | 78° |
| 2026-05-01 13:18 | -31.44369 | -57.99020 | 121 ft | 0 kts | 40° |
| 2026-05-01 13:18 | -31.44353 | -57.99005 | 118 ft | 24 kts | 40° |
| 2026-05-01 13:18 | -31.43960 | -57.98635 | 129 ft | 118 kts | 38° |
| 2026-05-01 13:18 | -31.43120 | -57.97844 | 283 ft | 184 kts | 39° |
| 2026-05-01 13:19 | -31.42083 | -57.97008 | 1531 ft | 167 kts | 23° |
| 2026-05-01 13:19 | -31.41144 | -57.96492 | 3175 ft | 139 kts | 20° |
| 2026-05-01 13:19 | -31.39425 | -57.94968 | 4181 ft | 179 kts | 9° |
| 2026-05-01 13:20 | -31.38104 | -57.94739 | 4481 ft | 205 kts | 4° |
| 2026-05-01 13:20 | -31.36598 | -57.94465 | 4707 ft | 231 kts | 6° |
| 2026-05-01 13:20 | -31.34953 | -57.94135 | 5043 ft | 253 kts | 6° |
| 2026-05-01 13:21 | -31.31379 | -57.93360 | 6612 ft | 265 kts | 6° |
| 2026-05-01 13:21 | -31.29557 | -57.92947 | 7487 ft | 266 kts | 6° |
| 2026-05-01 13:21 | -31.27741 | -57.92528 | 8369 ft | 269 kts | 6° |
| 2026-05-01 13:21 | -31.25910 | -57.92104 | 9186 ft | 273 kts | 6° |
| 2026-05-01 13:22 | -31.24039 | -57.91665 | 9695 ft | 274 kts | 6° |
| 2026-05-01 13:22 | -31.22161 | -57.91222 | 9910 ft | 276 kts | 5° |
| 2026-05-01 13:22 | -31.20277 | -57.90776 | 9940 ft | 277 kts | 6° |
| 2026-05-01 13:22 | -31.18379 | -57.90326 | 9944 ft | 278 kts | 6° |
| 2026-05-01 13:23 | -31.16486 | -57.89876 | 9946 ft | 279 kts | 6° |
| 2026-05-01 13:23 | -31.14580 | -57.89423 | 9947 ft | 279 kts | 6° |
| 2026-05-01 13:23 | -31.12666 | -57.88968 | 9950 ft | 282 kts | 5° |
| 2026-05-01 13:23 | -31.10691 | -57.88504 | 10088 ft | 302 kts | 6° |
| 2026-05-01 13:24 | -31.08538 | -57.88002 | 10301 ft | 326 kts | 6° |
| 2026-05-01 13:24 | -31.06263 | -57.87465 | 10824 ft | 337 kts | 6° |
| 2026-05-01 13:24 | -31.03943 | -57.86913 | 11495 ft | 342 kts | 7° |
| 2026-05-01 13:25 | -30.99237 | -57.85789 | 12777 ft | 353 kts | 7° |
| 2026-05-01 13:25 | -30.96819 | -57.85213 | 13438 ft | 357 kts | 7° |
| 2026-05-01 13:25 | -30.94368 | -57.84630 | 14061 ft | 361 kts | 7° |
| 2026-05-01 13:25 | -30.91904 | -57.84046 | 14666 ft | 363 kts | 6° |
| 2026-05-01 13:26 | -30.89412 | -57.83455 | 15274 ft | 366 kts | 6° |
| 2026-05-01 13:26 | -30.86902 | -57.82860 | 15880 ft | 369 kts | 6° |
| 2026-05-01 13:26 | -30.85234 | -57.82466 | 16262 ft | 371 kts | 6° |
| 2026-05-01 13:26 | -30.82686 | -57.81863 | 16855 ft | 375 kts | 6° |
| 2026-05-01 13:27 | -30.80119 | -57.81256 | 17451 ft | 378 kts | 6° |
| 2026-05-01 13:27 | -30.77530 | -57.80645 | 18053 ft | 381 kts | 6° |
| 2026-05-01 13:27 | -30.72304 | -57.79410 | 19122 ft | 386 kts | 6° |
| 2026-05-01 13:28 | -30.67038 | -57.77995 | 20181 ft | 393 kts | 10° |
| 2026-05-01 13:28 | -30.64402 | -57.77077 | 20711 ft | 396 kts | 11° |
| 2026-05-01 13:29 | -30.59100 | -57.75167 | 21762 ft | 402 kts | 11° |
| 2026-05-01 13:29 | -30.53716 | -57.73248 | 22796 ft | 407 kts | 10° |
| 2026-05-01 13:30 | -30.42737 | -57.69398 | 24498 ft | 417 kts | 10° |
| 2026-05-01 13:31 | -30.37160 | -57.67450 | 25248 ft | 421 kts | 10° |
| 2026-05-01 13:31 | -30.28678 | -57.64496 | 26268 ft | 428 kts | 9° |
| 2026-05-01 13:32 | -30.22773 | -57.63619 | 26377 ft | 432 kts | 354° |
| 2026-05-01 13:33 | -30.13531 | -57.63513 | 26507 ft | 452 kts | 355° |
| 2026-05-01 13:33 | -30.07189 | -57.63373 | 26744 ft | 458 kts | 355° |
| 2026-05-01 13:34 | -30.00818 | -57.63219 | 27284 ft | 457 kts | 355° |
| 2026-05-01 13:34 | -29.94479 | -57.63068 | 27968 ft | 453 kts | 355° |
| 2026-05-01 13:35 | -29.88231 | -57.62925 | 28587 ft | 451 kts | 355° |
| 2026-05-01 13:35 | -29.85092 | -57.62855 | 28850 ft | 451 kts | 355° |
| 2026-05-01 13:35 | -29.78801 | -57.62715 | 29345 ft | 452 kts | 355° |
| 2026-05-01 13:36 | -29.75666 | -57.62644 | 29739 ft | 449 kts | 355° |
| 2026-05-01 13:36 | -29.72533 | -57.62571 | 30125 ft | 447 kts | 355° |
| 2026-05-01 13:36 | -29.66361 | -57.62432 | 30659 ft | 446 kts | 354° |
| 2026-05-01 13:37 | -29.63260 | -57.62363 | 30932 ft | 445 kts | 354° |
| 2026-05-01 13:37 | -29.60170 | -57.62294 | 31241 ft | 444 kts | 354° |
| 2026-05-01 13:37 | -29.57084 | -57.62224 | 31564 ft | 443 kts | 354° |
| 2026-05-01 13:37 | -29.54006 | -57.62155 | 31849 ft | 442 kts | 354° |
| 2026-05-01 13:38 | -29.47867 | -57.62018 | 32442 ft | 440 kts | 353° |
| 2026-05-01 13:38 | -29.44813 | -57.61949 | 32756 ft | 439 kts | 353° |
| 2026-05-01 13:38 | -29.41747 | -57.61880 | 33063 ft | 438 kts | 353° |
| 2026-05-01 13:39 | -29.38705 | -57.61812 | 33378 ft | 437 kts | 353° |
| 2026-05-01 13:39 | -29.32559 | -57.61679 | 33542 ft | 446 kts | 353° |
| 2026-05-01 13:39 | -29.29464 | -57.61609 | 33846 ft | 445 kts | 353° |
| 2026-05-01 13:40 | -29.26369 | -57.61537 | 34288 ft | 442 kts | 353° |
| 2026-05-01 13:40 | -29.23307 | -57.61467 | 34705 ft | 440 kts | 353° |
| 2026-05-01 13:40 | -29.20251 | -57.61393 | 35048 ft | 439 kts | 353° |
| 2026-05-01 13:40 | -29.17189 | -57.61319 | 35276 ft | 439 kts | 352° |
| 2026-05-01 13:41 | -29.14134 | -57.61246 | 35476 ft | 439 kts | 352° |
| 2026-05-01 13:41 | -29.11120 | -57.61173 | 35710 ft | 438 kts | 352° |
| 2026-05-01 13:41 | -29.08072 | -57.61098 | 36023 ft | 436 kts | 352° |
| 2026-05-01 13:41 | -29.05041 | -57.61024 | 36271 ft | 435 kts | 351° |
| 2026-05-01 13:42 | -29.02012 | -57.60952 | 36457 ft | 436 kts | 351° |
| 2026-05-01 13:42 | -28.98969 | -57.60880 | 36682 ft | 436 kts | 351° |
| 2026-05-01 13:42 | -28.95945 | -57.60807 | 36934 ft | 435 kts | 351° |
| 2026-05-01 13:42 | -28.92924 | -57.60734 | 37168 ft | 434 kts | 351° |
| 2026-05-01 13:43 | -28.89908 | -57.60662 | 37367 ft | 434 kts | 351° |
| 2026-05-01 13:43 | -28.86890 | -57.60590 | 37554 ft | 433 kts | 350° |
| 2026-05-01 13:43 | -28.83878 | -57.60516 | 37870 ft | 431 kts | 350° |
| 2026-05-01 13:43 | -28.80885 | -57.60443 | 38112 ft | 430 kts | 350° |
| 2026-05-01 13:44 | -28.77891 | -57.60372 | 38279 ft | 430 kts | 350° |
| 2026-05-01 13:44 | -28.74898 | -57.60302 | 38452 ft | 430 kts | 350° |
| 2026-05-01 13:44 | -28.71899 | -57.60232 | 38653 ft | 430 kts | 349° |
| 2026-05-01 13:44 | -28.68906 | -57.60160 | 38831 ft | 429 kts | 350° |
| 2026-05-01 13:45 | -28.65913 | -57.60088 | 38957 ft | 429 kts | 350° |
| 2026-05-01 13:45 | -28.59942 | -57.59949 | 38970 ft | 433 kts | 349° |
| 2026-05-01 13:46 | -28.53905 | -57.59806 | 38978 ft | 434 kts | 349° |
| 2026-05-01 13:46 | -28.47859 | -57.59660 | 38979 ft | 435 kts | 349° |
| 2026-05-01 13:47 | -28.41805 | -57.59515 | 38982 ft | 435 kts | 349° |
| 2026-05-01 13:47 | -28.35747 | -57.59370 | 38965 ft | 435 kts | 349° |
| 2026-05-01 13:48 | -28.29706 | -57.59227 | 38972 ft | 434 kts | 349° |
| 2026-05-01 13:48 | -28.23656 | -57.59084 | 38978 ft | 433 kts | 349° |
| 2026-05-01 13:49 | -28.17626 | -57.58924 | 38973 ft | 434 kts | 349° |
| 2026-05-01 13:49 | -28.11627 | -57.58673 | 38951 ft | 434 kts | 350° |
| 2026-05-01 13:50 | -28.05587 | -57.58402 | 38967 ft | 434 kts | 350° |
| 2026-05-01 13:50 | -27.99556 | -57.58144 | 38975 ft | 433 kts | 350° |
| 2026-05-01 13:51 | -27.93541 | -57.57893 | 38980 ft | 433 kts | 350° |
| 2026-05-01 13:51 | -27.87516 | -57.57643 | 38956 ft | 433 kts | 350° |
| 2026-05-01 13:52 | -27.81499 | -57.57394 | 38971 ft | 432 kts | 350° |
| 2026-05-01 13:52 | -27.75497 | -57.57146 | 38980 ft | 432 kts | 350° |
| 2026-05-01 13:53 | -27.69481 | -57.56897 | 38982 ft | 432 kts | 350° |
| 2026-05-01 13:53 | -27.60489 | -57.56526 | 38963 ft | 432 kts | 350° |
| 2026-05-01 13:54 | -27.54474 | -57.56277 | 38977 ft | 432 kts | 350° |
| 2026-05-01 13:54 | -27.48461 | -57.56029 | 38981 ft | 432 kts | 350° |
| 2026-05-01 13:55 | -27.42446 | -57.55782 | 38984 ft | 432 kts | 350° |
| 2026-05-01 13:55 | -27.36441 | -57.55597 | 38963 ft | 432 kts | 350° |
| 2026-05-01 13:56 | -27.30420 | -57.55442 | 38973 ft | 431 kts | 350° |
| 2026-05-01 13:56 | -27.24442 | -57.55283 | 38984 ft | 431 kts | 350° |
| 2026-05-01 13:57 | -27.19445 | -57.55145 | 38983 ft | 432 kts | 350° |
| 2026-05-01 13:57 | -27.12429 | -57.54949 | 38983 ft | 431 kts | 350° |
| 2026-05-01 13:58 | -27.06416 | -57.54781 | 38985 ft | 431 kts | 350° |
| 2026-05-01 13:58 | -27.00408 | -57.54614 | 38986 ft | 431 kts | 350° |
| 2026-05-01 13:59 | -26.94446 | -57.54448 | 38986 ft | 431 kts | 350° |
| 2026-05-01 13:59 | -26.88448 | -57.54282 | 38986 ft | 431 kts | 350° |
| 2026-05-01 14:00 | -26.82458 | -57.54137 | 38984 ft | 429 kts | 349° |
| 2026-05-01 14:00 | -26.76478 | -57.54072 | 38982 ft | 429 kts | 349° |
| 2026-05-01 14:01 | -26.70509 | -57.54017 | 38988 ft | 428 kts | 349° |
| 2026-05-01 14:01 | -26.64550 | -57.53954 | 38988 ft | 428 kts | 349° |
| 2026-05-01 14:02 | -26.58616 | -57.53886 | 38963 ft | 428 kts | 349° |
| 2026-05-01 14:02 | -26.52655 | -57.53816 | 38978 ft | 428 kts | 349° |
| 2026-05-01 14:03 | -26.46692 | -57.53746 | 38987 ft | 428 kts | 349° |
| 2026-05-01 14:03 | -26.40734 | -57.53677 | 38987 ft | 428 kts | 349° |
| 2026-05-01 14:04 | -26.34758 | -57.53608 | 38984 ft | 429 kts | 349° |
| 2026-05-01 14:04 | -26.29798 | -57.53550 | 38985 ft | 429 kts | 350° |
| 2026-05-01 14:05 | -26.22845 | -57.53470 | 38984 ft | 429 kts | 350° |
| 2026-05-01 14:05 | -26.16862 | -57.53401 | 38986 ft | 430 kts | 350° |
| 2026-05-01 14:06 | -26.10873 | -57.53331 | 38993 ft | 431 kts | 350° |
| 2026-05-01 14:06 | -26.04880 | -57.53260 | 38977 ft | 431 kts | 351° |
| 2026-05-01 14:07 | -25.98877 | -57.53180 | 38988 ft | 432 kts | 351° |
| 2026-05-01 14:08 | -25.89851 | -57.53059 | 38987 ft | 432 kts | 351° |
| 2026-05-01 14:08 | -25.83827 | -57.52979 | 38988 ft | 433 kts | 351° |
| 2026-05-01 14:09 | -25.77847 | -57.52900 | 38983 ft | 432 kts | 351° |
| 2026-05-01 14:09 | -25.71826 | -57.52820 | 38983 ft | 432 kts | 351° |
| 2026-05-01 14:10 | -25.65807 | -57.52741 | 38990 ft | 432 kts | 351° |
| 2026-05-01 14:10 | -25.59798 | -57.52663 | 38996 ft | 432 kts | 351° |
| 2026-05-01 14:11 | -25.54790 | -57.52597 | 38967 ft | 432 kts | 351° |
| 2026-05-01 14:11 | -25.44797 | -57.52466 | 38992 ft | 432 kts | 351° |
| 2026-05-01 14:12 | -25.39758 | -57.52400 | 38990 ft | 431 kts | 351° |
| 2026-05-01 14:12 | -25.33793 | -57.52322 | 39001 ft | 431 kts | 351° |
| 2026-05-01 14:13 | -25.27784 | -57.52244 | 38950 ft | 431 kts | 351° |
| 2026-05-01 14:13 | -25.21828 | -57.52401 | 38973 ft | 423 kts | 345° |
| 2026-05-01 14:14 | -25.16000 | -57.53163 | 38963 ft | 421 kts | 343° |
| 2026-05-01 14:14 | -25.10186 | -57.53969 | 38969 ft | 421 kts | 344° |
| 2026-05-01 14:15 | -25.04357 | -57.54738 | 38982 ft | 422 kts | 344° |
| 2026-05-01 14:15 | -24.98521 | -57.55482 | 38979 ft | 422 kts | 345° |
| 2026-05-01 14:16 | -24.92726 | -57.56214 | 38989 ft | 422 kts | 345° |
| 2026-05-01 14:16 | -24.86876 | -57.56953 | 38998 ft | 423 kts | 345° |
| 2026-05-01 14:17 | -24.81027 | -57.57691 | 38995 ft | 424 kts | 345° |
| 2026-05-01 14:17 | -24.75161 | -57.58431 | 38984 ft | 424 kts | 346° |
| 2026-05-01 14:18 | -24.69293 | -57.59170 | 38998 ft | 425 kts | 346° |
| 2026-05-01 14:18 | -24.64404 | -57.59785 | 39000 ft | 426 kts | 346° |
| 2026-05-01 14:19 | -24.57507 | -57.60653 | 38997 ft | 427 kts | 346° |
| 2026-05-01 14:19 | -24.51630 | -57.61391 | 38994 ft | 428 kts | 346° |
| 2026-05-01 14:20 | -24.42756 | -57.62505 | 38998 ft | 428 kts | 346° |
| 2026-05-01 14:21 | -24.36831 | -57.63265 | 38998 ft | 428 kts | 345° |
| 2026-05-01 14:21 | -24.30944 | -57.64046 | 38998 ft | 428 kts | 345° |
| 2026-05-01 14:22 | -24.22074 | -57.65224 | 38990 ft | 427 kts | 346° |
| 2026-05-01 14:22 | -24.16167 | -57.66004 | 39002 ft | 428 kts | 346° |
| 2026-05-01 14:23 | -24.10251 | -57.66783 | 38997 ft | 428 kts | 346° |
| 2026-05-01 14:23 | -24.04337 | -57.67561 | 38998 ft | 428 kts | 346° |
| 2026-05-01 14:24 | -23.98416 | -57.68339 | 38984 ft | 428 kts | 346° |
| 2026-05-01 14:24 | -23.92498 | -57.69117 | 38997 ft | 428 kts | 346° |
| 2026-05-01 14:25 | -23.86619 | -57.69888 | 38997 ft | 428 kts | 346° |
| 2026-05-01 14:25 | -23.80682 | -57.70667 | 38998 ft | 429 kts | 346° |
| 2026-05-01 14:26 | -23.71823 | -57.71827 | 38978 ft | 429 kts | 346° |
| 2026-05-01 14:27 | -23.65889 | -57.72603 | 38991 ft | 429 kts | 346° |
| 2026-05-01 14:27 | -23.59949 | -57.73379 | 38991 ft | 429 kts | 346° |
| 2026-05-01 14:28 | -23.51038 | -57.74542 | 38987 ft | 430 kts | 346° |
| 2026-05-01 14:28 | -23.45096 | -57.75317 | 38971 ft | 430 kts | 346° |
| 2026-05-01 14:29 | -23.39154 | -57.76091 | 38988 ft | 430 kts | 346° |
| 2026-05-01 14:30 | -23.27308 | -57.77632 | 38992 ft | 430 kts | 346° |
| 2026-05-01 14:31 | -23.18392 | -57.78790 | 38977 ft | 430 kts | 346° |
| 2026-05-01 14:31 | -23.12446 | -57.79561 | 38987 ft | 430 kts | 346° |
| 2026-05-01 14:32 | -23.06499 | -57.80332 | 38988 ft | 430 kts | 346° |
| 2026-05-01 14:32 | -23.00594 | -57.81097 | 38990 ft | 430 kts | 346° |
| 2026-05-01 14:33 | -22.94639 | -57.81868 | 38986 ft | 431 kts | 346° |
| 2026-05-01 14:33 | -22.88682 | -57.82638 | 38984 ft | 431 kts | 346° |
| 2026-05-01 14:34 | -22.82730 | -57.83407 | 38990 ft | 431 kts | 346° |
| 2026-05-01 14:34 | -22.76772 | -57.84176 | 38989 ft | 431 kts | 346° |
| 2026-05-01 14:35 | -22.70813 | -57.84944 | 38986 ft | 431 kts | 346° |
| 2026-05-01 14:35 | -22.64853 | -57.85712 | 38977 ft | 431 kts | 347° |
| 2026-05-01 14:36 | -22.58886 | -57.86480 | 38988 ft | 432 kts | 347° |
| 2026-05-01 14:36 | -22.52918 | -57.87248 | 38984 ft | 432 kts | 347° |
| 2026-05-01 14:37 | -22.46938 | -57.88016 | 38985 ft | 432 kts | 347° |
| 2026-05-01 14:37 | -22.40962 | -57.88783 | 38986 ft | 433 kts | 347° |
| 2026-05-01 14:38 | -22.35019 | -57.89544 | 38995 ft | 433 kts | 347° |
| 2026-05-01 14:38 | -22.29030 | -57.90313 | 38986 ft | 433 kts | 347° |
| 2026-05-01 14:39 | -22.23024 | -57.91082 | 38980 ft | 434 kts | 347° |
| 2026-05-01 14:39 | -22.17023 | -57.91850 | 38996 ft | 434 kts | 347° |
| 2026-05-01 14:40 | -22.11020 | -57.92618 | 38974 ft | 435 kts | 348° |
| 2026-05-01 14:40 | -22.04998 | -57.93387 | 38990 ft | 435 kts | 348° |
| 2026-05-01 14:41 | -21.99030 | -57.94148 | 38978 ft | 434 kts | 348° |
| 2026-05-01 14:41 | -21.93024 | -57.94913 | 38973 ft | 434 kts | 348° |
| 2026-05-01 14:42 | -21.87016 | -57.95679 | 38981 ft | 434 kts | 348° |
| 2026-05-01 14:42 | -21.81019 | -57.96442 | 38985 ft | 434 kts | 348° |
| 2026-05-01 14:43 | -21.75021 | -57.97205 | 38980 ft | 434 kts | 348° |
| 2026-05-01 14:43 | -21.69054 | -57.97963 | 38989 ft | 434 kts | 348° |
| 2026-05-01 14:44 | -21.63063 | -57.98724 | 38986 ft | 433 kts | 348° |
| 2026-05-01 14:44 | -21.54066 | -57.99865 | 38984 ft | 433 kts | 348° |
| 2026-05-01 14:45 | -21.45092 | -58.01002 | 38983 ft | 433 kts | 348° |
| 2026-05-01 14:46 | -21.39094 | -58.01761 | 38989 ft | 433 kts | 348° |
| 2026-05-01 14:46 | -21.30100 | -58.02898 | 38978 ft | 434 kts | 348° |
| 2026-05-01 14:47 | -21.24103 | -58.03656 | 38982 ft | 434 kts | 348° |
| 2026-05-01 14:48 | -21.15093 | -58.04792 | 38983 ft | 435 kts | 348° |
| 2026-05-01 14:48 | -21.06070 | -58.05929 | 38980 ft | 436 kts | 348° |
| 2026-05-01 14:49 | -20.94035 | -58.07443 | 38977 ft | 437 kts | 348° |
| 2026-05-01 14:50 | -20.81954 | -58.08961 | 38980 ft | 437 kts | 348° |
| 2026-05-01 14:51 | -20.72842 | -58.10106 | 38483 ft | 445 kts | 348° |
| 2026-05-01 14:52 | -20.66765 | -58.10865 | 37268 ft | 440 kts | 349° |
| 2026-05-01 14:52 | -20.63719 | -58.11246 | 36647 ft | 438 kts | 349° |
| 2026-05-01 14:52 | -20.57643 | -58.11896 | 35308 ft | 440 kts | 351° |
| 2026-05-01 14:53 | -20.54591 | -58.12179 | 34588 ft | 442 kts | 351° |
| 2026-05-01 14:53 | -20.51521 | -58.12459 | 33842 ft | 444 kts | 351° |
| 2026-05-01 14:53 | -20.48437 | -58.12743 | 33020 ft | 446 kts | 352° |
| 2026-05-01 14:53 | -20.45343 | -58.13032 | 32236 ft | 447 kts | 352° |
| 2026-05-01 14:54 | -20.42242 | -58.13325 | 31455 ft | 448 kts | 352° |
| 2026-05-01 14:54 | -20.39123 | -58.13622 | 30615 ft | 451 kts | 352° |
| 2026-05-01 14:54 | -20.36030 | -58.13918 | 29718 ft | 454 kts | 352° |
| 2026-05-01 14:54 | -20.32864 | -58.14222 | 28692 ft | 457 kts | 353° |
| 2026-05-01 14:55 | -20.29694 | -58.14526 | 27701 ft | 459 kts | 353° |
| 2026-05-01 14:55 | -20.26502 | -58.14832 | 26689 ft | 461 kts | 353° |
| 2026-05-01 14:55 | -20.23305 | -58.15138 | 25761 ft | 462 kts | 353° |
| 2026-05-01 14:55 | -20.20122 | -58.15441 | 25005 ft | 458 kts | 353° |
| 2026-05-01 14:56 | -20.16958 | -58.15743 | 24257 ft | 455 kts | 353° |
| 2026-05-01 14:56 | -20.13811 | -58.16043 | 23489 ft | 453 kts | 353° |
| 2026-05-01 14:56 | -20.10688 | -58.16342 | 22637 ft | 449 kts | 353° |
| 2026-05-01 14:56 | -20.07576 | -58.16639 | 21856 ft | 445 kts | 353° |
| 2026-05-01 14:57 | -20.04512 | -58.16931 | 21098 ft | 440 kts | 353° |
| 2026-05-01 14:57 | -19.98466 | -58.17508 | 19633 ft | 432 kts | 354° |
| 2026-05-01 14:57 | -19.96484 | -58.17697 | 19139 ft | 430 kts | 353° |
| 2026-05-01 14:58 | -19.93513 | -58.17981 | 18418 ft | 427 kts | 353° |
| 2026-05-01 14:58 | -19.89595 | -58.18354 | 17337 ft | 424 kts | 353° |
| 2026-05-01 14:58 | -19.87613 | -58.18543 | 16825 ft | 421 kts | 354° |
| 2026-05-01 14:58 | -19.84741 | -58.18817 | 16110 ft | 417 kts | 354° |
| 2026-05-01 14:59 | -19.81868 | -58.19091 | 15385 ft | 413 kts | 354° |
| 2026-05-01 14:59 | -19.79035 | -58.19360 | 14675 ft | 406 kts | 354° |
| 2026-05-01 14:59 | -19.76223 | -58.19628 | 13962 ft | 404 kts | 354° |
| 2026-05-01 14:59 | -19.73428 | -58.19894 | 13198 ft | 401 kts | 354° |
| 2026-05-01 15:00 | -19.67960 | -58.20410 | 11817 ft | 389 kts | 354° |
| 2026-05-01 15:00 | -19.65247 | -58.20366 | 11178 ft | 386 kts | 8° |
| 2026-05-01 15:00 | -19.62692 | -58.19720 | 11061 ft | 369 kts | 17° |
| 2026-05-01 15:01 | -19.60378 | -58.18671 | 10914 ft | 356 kts | 27° |
| 2026-05-01 15:01 | -19.58282 | -58.17370 | 10783 ft | 342 kts | 29° |
| 2026-05-01 15:01 | -19.56272 | -58.16098 | 10655 ft | 330 kts | 30° |
| 2026-05-01 15:01 | -19.54350 | -58.14882 | 10514 ft | 319 kts | 29° |
| 2026-05-01 15:02 | -19.52473 | -58.13698 | 10386 ft | 309 kts | 29° |
| 2026-05-01 15:02 | -19.51240 | -58.12922 | 10300 ft | 299 kts | 28° |
| 2026-05-01 15:02 | -19.48953 | -58.11488 | 10139 ft | 279 kts | 28° |
| 2026-05-01 15:02 | -19.47298 | -58.10454 | 10034 ft | 271 kts | 28° |
| 2026-05-01 15:03 | -19.45716 | -58.09466 | 9834 ft | 263 kts | 28° |
| 2026-05-01 15:03 | -19.44139 | -58.08485 | 9573 ft | 262 kts | 28° |
| 2026-05-01 15:03 | -19.42570 | -58.07508 | 9306 ft | 261 kts | 28° |
| 2026-05-01 15:03 | -19.41005 | -58.06535 | 9038 ft | 260 kts | 28° |
| 2026-05-01 15:04 | -19.39443 | -58.05563 | 8767 ft | 260 kts | 28° |
| 2026-05-01 15:04 | -19.37884 | -58.04593 | 8501 ft | 259 kts | 28° |
| 2026-05-01 15:04 | -19.36339 | -58.03633 | 8241 ft | 258 kts | 28° |
| 2026-05-01 15:04 | -19.34791 | -58.02670 | 7985 ft | 257 kts | 28° |
| 2026-05-01 15:05 | -19.33245 | -58.01709 | 7716 ft | 257 kts | 29° |
| 2026-05-01 15:05 | -19.31727 | -58.00766 | 7451 ft | 256 kts | 29° |
| 2026-05-01 15:05 | -19.30194 | -57.99813 | 7179 ft | 256 kts | 29° |
| 2026-05-01 15:05 | -19.28660 | -57.98860 | 6922 ft | 253 kts | 29° |
| 2026-05-01 15:06 | -19.27139 | -57.97915 | 6658 ft | 253 kts | 29° |
| 2026-05-01 15:06 | -19.25626 | -57.96976 | 6402 ft | 252 kts | 29° |
| 2026-05-01 15:06 | -19.24118 | -57.96039 | 6138 ft | 247 kts | 29° |
| 2026-05-01 15:06 | -19.22657 | -57.95132 | 5888 ft | 238 kts | 29° |
| 2026-05-01 15:07 | -19.21248 | -57.94257 | 5637 ft | 233 kts | 29° |
| 2026-05-01 15:07 | -19.19851 | -57.93391 | 5401 ft | 232 kts | 29° |
| 2026-05-01 15:07 | -19.18458 | -57.92527 | 5155 ft | 232 kts | 30° |
| 2026-05-01 15:07 | -19.17064 | -57.91663 | 4917 ft | 232 kts | 29° |
| 2026-05-01 15:08 | -19.15691 | -57.90811 | 4677 ft | 230 kts | 30° |
| 2026-05-01 15:08 | -19.14315 | -57.89957 | 4430 ft | 231 kts | 29° |
| 2026-05-01 15:08 | -19.12935 | -57.89102 | 4305 ft | 226 kts | 30° |
| 2026-05-01 15:08 | -19.11600 | -57.88275 | 4216 ft | 221 kts | 30° |
| 2026-05-01 15:09 | -19.10306 | -57.87473 | 4074 ft | 208 kts | 29° |
| 2026-05-01 15:09 | -19.09099 | -57.86724 | 3981 ft | 195 kts | 29° |
| 2026-05-01 15:09 | -19.07936 | -57.86004 | 3879 ft | 195 kts | 29° |
| 2026-05-01 15:09 | -19.06753 | -57.85270 | 3689 ft | 198 kts | 31° |
| 2026-05-01 15:10 | -19.05819 | -57.84234 | 3473 ft | 195 kts | 57° |
| 2026-05-01 15:10 | -19.04988 | -57.81603 | 3073 ft | 180 kts | 71° |
| 2026-05-01 15:10 | -19.04677 | -57.80370 | 2869 ft | 172 kts | 72° |
| 2026-05-01 15:11 | -19.04368 | -57.79182 | 2669 ft | 162 kts | 71° |
| 2026-05-01 15:11 | -19.03770 | -57.76918 | 2229 ft | 155 kts | 70° |
| 2026-05-01 15:11 | -19.03482 | -57.75853 | 2066 ft | 147 kts | 70° |
| 2026-05-01 15:12 | -19.03204 | -57.74823 | 1859 ft | 142 kts | 71° |
| 2026-05-01 15:12 | -19.02698 | -57.72926 | 1500 ft | 128 kts | 71° |
| 2026-05-01 15:12 | -19.02443 | -57.72003 | 1337 ft | 132 kts | 73° |
| 2026-05-01 15:13 | -19.01744 | -57.69190 | 766 ft | 126 kts | 71° |
| 2026-05-01 15:14 | -19.01239 | -57.67457 | 462 ft | 116 kts | 68° |
| 2026-05-01 15:14 | -19.01040 | -57.66693 | 520 ft | 107 kts | 68° |
| 2026-05-01 15:14 | -19.00471 | -57.64904 | 1711 ft | 155 kts | 67° |
| 2026-05-01 15:15 | -18.99633 | -57.61989 | 2192 ft | 250 kts | 90° |
| 2026-05-01 15:15 | -19.01788 | -57.59406 | 2271 ft | 262 kts | 167° |
| 2026-05-01 15:16 | -19.04880 | -57.60834 | 2311 ft | 254 kts | 244° |
| 2026-05-01 15:16 | -19.06456 | -57.64227 | 3385 ft | 261 kts | 248° |
| 2026-05-01 15:17 | -19.07775 | -57.67621 | 3871 ft | 247 kts | 252° |
| 2026-05-01 15:18 | -19.09762 | -57.72577 | 3894 ft | 240 kts | 251° |
| 2026-05-01 15:18 | -19.10432 | -57.74191 | 3885 ft | 239 kts | 251° |
| 2026-05-01 15:19 | -19.12469 | -57.78993 | 3899 ft | 237 kts | 250° |
| 2026-05-01 15:19 | -19.13828 | -57.82174 | 3879 ft | 238 kts | 247° |
| 2026-05-01 15:19 | -19.14859 | -57.83521 | 3911 ft | 241 kts | 218° |
| 2026-05-01 15:20 | -19.18094 | -57.84029 | 3915 ft | 241 kts | 160° |
| 2026-05-01 15:20 | -19.19717 | -57.83500 | 3901 ft | 246 kts | 158° |
| 2026-05-01 15:20 | -19.21362 | -57.82950 | 3909 ft | 248 kts | 159° |
| 2026-05-01 15:21 | -19.22952 | -57.82311 | 3878 ft | 240 kts | 142° |
| 2026-05-01 15:21 | -19.23974 | -57.81079 | 3885 ft | 218 kts | 105° |
| 2026-05-01 15:21 | -19.24231 | -57.79553 | 3901 ft | 208 kts | 81° |
| 2026-05-01 15:21 | -19.23865 | -57.78098 | 3875 ft | 204 kts | 57° |
| 2026-05-01 15:22 | -19.21658 | -57.76419 | 3881 ft | 203 kts | 10° |
| 2026-05-01 15:22 | -19.20244 | -57.76555 | 3898 ft | 205 kts | 349° |
| 2026-05-01 15:22 | -19.18882 | -57.77106 | 3913 ft | 223 kts | 335° |
| 2026-05-01 15:23 | -19.17441 | -57.77969 | 3694 ft | 246 kts | 334° |
| 2026-05-01 15:23 | -19.15942 | -57.78870 | 3465 ft | 248 kts | 334° |
| 2026-05-01 15:23 | -19.14477 | -57.79736 | 3304 ft | 231 kts | 335° |
| 2026-05-01 15:23 | -19.13126 | -57.80524 | 3185 ft | 212 kts | 335° |
| 2026-05-01 15:24 | -19.11875 | -57.81246 | 3104 ft | 199 kts | 336° |
| 2026-05-01 15:24 | -19.10707 | -57.81917 | 2990 ft | 184 kts | 336° |
| 2026-05-01 15:24 | -19.09625 | -57.82541 | 2866 ft | 169 kts | 336° |
| 2026-05-01 15:24 | -19.08630 | -57.83109 | 2822 ft | 156 kts | 337° |
| 2026-05-01 15:25 | -19.07652 | -57.83661 | 2830 ft | 161 kts | 339° |
| 2026-05-01 15:25 | -19.06609 | -57.83809 | 2807 ft | 151 kts | 24° |
| 2026-05-01 15:25 | -19.05913 | -57.83047 | 2839 ft | 149 kts | 57° |
| 2026-05-01 15:25 | -19.05374 | -57.82068 | 2865 ft | 160 kts | 63° |
| 2026-05-01 15:26 | -19.04897 | -57.81010 | 2838 ft | 155 kts | 65° |
| 2026-05-01 15:26 | -19.04594 | -57.79913 | 2771 ft | 156 kts | 71° |
| 2026-05-01 15:26 | -19.04295 | -57.78856 | 2609 ft | 141 kts | 68° |
| 2026-05-01 15:26 | -19.04024 | -57.77906 | 2423 ft | 132 kts | 65° |
| 2026-05-01 15:27 | -19.03771 | -57.77029 | 2247 ft | 119 kts | 71° |
| 2026-05-01 15:27 | -19.03550 | -57.76141 | 2097 ft | 132 kts | 70° |
| 2026-05-01 15:27 | -19.03305 | -57.75202 | 1944 ft | 133 kts | 69° |
| 2026-05-01 15:28 | -19.02795 | -57.73287 | 1576 ft | 136 kts | 70° |
| 2026-05-01 15:28 | -19.02535 | -57.72331 | 1374 ft | 134 kts | 72° |
| 2026-05-01 15:28 | -19.02296 | -57.71382 | 1251 ft | 130 kts | 70° |
| 2026-05-01 15:29 | -19.01831 | -57.69539 | 819 ft | 127 kts | 69° |
| 2026-05-01 15:29 | -19.01567 | -57.68656 | 593 ft | 124 kts | 74° |
| 2026-05-01 15:29 | -19.01098 | -57.66912 | 510 ft | 117 kts | 70° |
| 2026-05-01 15:30 | -19.00547 | -57.65082 | 1825 ft | 156 kts | 65° |
| 2026-05-01 15:31 | -19.00062 | -57.58646 | 2207 ft | 241 kts | 127° |
| 2026-05-01 15:31 | -19.03122 | -57.57655 | 2339 ft | 248 kts | 194° |
| 2026-05-01 15:32 | -19.05655 | -57.59966 | 2320 ft | 245 kts | 240° |
| 2026-05-01 15:32 | -19.07020 | -57.63184 | 2300 ft | 237 kts | 259° |
| 2026-05-01 15:33 | -19.08095 | -57.68312 | 2301 ft | 245 kts | 261° |
| 2026-05-01 15:34 | -19.09208 | -57.73534 | 2285 ft | 241 kts | 262° |